»·PEaware :: N734DT KAJO-KLAS

N734DT :: KAJO-KLAS

FLIGHT INFORMATION

Flight Status: Arrived
Operator: Privately registered:
United States
More flights under this callsign
Pilot: Jacob C. (16006)
Aircraft: Unknown
(PIPA)
More flights by this aircraft type
Origin: KAJO Corona Mun
United States
Destination: KLAS McCarran Intl
United States
More flights between these airports :: More routes between these airports
Route: KAJO CIVET V8 BULGY DAG V394 OASYS KLAS
File this flight plan on PilotEdge
Remarks:
Altitude:
(Current/Filed)
9,500ft
Speed:
(Current/Filed)
198kts
Departed: 12-Jul-17 07:42 PM
Arrived: 12-Jul-17 08:53 PM
Distance/Time
Traveled:
178nm/1:11
Distance/Time
To Go:
Arrived

Flight Plot

Page will automatically refresh every two minutes.

Flight plan parsing failed; only flown route is shown


Map Options




Map Legend


Flown Route
Filed Route
Departure Airport
Arrival Airport
Navaid (VOR, NDB)
Fix

Horizontal Profiles

Position Reports

Time Latitude Longitude Heading Altitude Ground
Speed
12-Jul-17 19:44 33.897304 -117.597809 85 536ft 0kts
12-Jul-17 19:45 33.897690 -117.600145 268 539ft 62kts
12-Jul-17 19:46 33.897372 -117.625054 262 1395ft 80kts
12-Jul-17 19:47 33.910587 -117.635051 36 2314ft 97kts
12-Jul-17 19:48 33.920259 -117.608363 64 2906ft 110kts
12-Jul-17 19:49 33.931195 -117.580283 60 3326ft 113kts
12-Jul-17 19:50 33.943855 -117.552497 56 3755ft 114kts
12-Jul-17 19:51 33.956492 -117.527346 53 4061ft 93kts
12-Jul-17 19:52 33.971259 -117.500146 54 4215ft 117kts
12-Jul-17 19:53 33.986452 -117.473489 52 4309ft 117kts
12-Jul-17 19:54 34.001625 -117.447796 52 4401ft 118kts
12-Jul-17 19:55 34.017083 -117.422269 51 4490ft 117kts
12-Jul-17 19:56 34.033644 -117.395417 51 4594ft 127kts
12-Jul-17 19:57 34.055737 -117.369065 44 4998ft 128kts
12-Jul-17 19:58 34.077387 -117.341334 46 5449ft 126kts
12-Jul-17 19:59 34.099972 -117.313176 44 5914ft 125kts
12-Jul-17 20:00 34.122326 -117.285937 44 6310ft 128kts
12-Jul-17 20:01 34.148209 -117.254488 44 6241ft 152kts
12-Jul-17 20:02 34.182382 -117.213123 44 6319ft 192kts
12-Jul-17 20:03 34.218794 -117.169058 44 6747ft 184kts
12-Jul-17 20:04 34.253308 -117.126377 44 7445ft 170kts
12-Jul-17 20:05 34.285959 -117.087104 42 8387ft 153kts
12-Jul-17 20:06 34.313845 -117.053541 42 9488ft 152kts
12-Jul-17 20:07 34.348108 -117.012165 43 9477ft 191kts
12-Jul-17 20:08 34.386258 -116.965873 43 9450ft 196kts
12-Jul-17 20:09 34.424569 -116.919304 43 9427ft 199kts
12-Jul-17 20:10 34.463339 -116.872106 43 9409ft 200kts
12-Jul-17 20:11 34.502058 -116.824853 43 9408ft 198kts
12-Jul-17 20:12 34.540683 -116.777662 43 9408ft 198kts
12-Jul-17 20:13 34.578827 -116.731000 43 9408ft 198kts
12-Jul-17 20:14 34.617713 -116.683366 43 9408ft 200kts
12-Jul-17 20:15 34.656593 -116.635670 43 9408ft 201kts
12-Jul-17 20:16 34.707998 -116.618237 7 9408ft 194kts
12-Jul-17 20:17 34.760078 -116.609401 6 9407ft 190kts
12-Jul-17 20:18 34.811807 -116.601154 6 9407ft 188kts
12-Jul-17 20:19 34.862837 -116.593281 6 9472ft 186kts
12-Jul-17 20:20 34.914279 -116.585600 8 9473ft 190kts
12-Jul-17 20:21 34.964360 -116.571027 45 9479ft 186kts
12-Jul-17 20:22 35.001461 -116.527138 46 9487ft 187kts
12-Jul-17 20:23 35.031857 -116.490258 46 9498ft 186kts
12-Jul-17 20:24 35.068280 -116.445539 45 9511ft 187kts
12-Jul-17 20:25 35.103325 -116.402159 46 9518ft 188kts
12-Jul-17 20:26 35.139073 -116.357674 46 9517ft 188kts
12-Jul-17 20:27 35.165148 -116.325131 46 9517ft 187kts
12-Jul-17 20:28 35.185314 -116.299904 46 9517ft 187kts
12-Jul-17 20:29 35.221153 -116.255003 46 9517ft 187kts
12-Jul-17 20:30 35.256993 -116.210023 46 9517ft 187kts
12-Jul-17 20:31 35.269461 -116.194356 46 9517ft 187kts
12-Jul-17 20:32 35.305257 -116.149348 46 9517ft 187kts
12-Jul-17 20:33 35.341219 -116.104142 46 9517ft 187kts
12-Jul-17 20:34 35.377249 -116.058787 46 9517ft 187kts
12-Jul-17 20:35 35.413153 -116.013408 46 9518ft 187kts
12-Jul-17 20:36 35.449224 -115.967708 46 9518ft 187kts
12-Jul-17 20:37 35.485181 -115.922123 46 9518ft 187kts
12-Jul-17 20:38 35.521177 -115.876432 46 9515ft 188kts
12-Jul-17 20:39 35.557085 -115.830806 46 9512ft 187kts
12-Jul-17 20:40 35.591304 -115.787278 46 9509ft 187kts
12-Jul-17 20:41 35.627223 -115.741528 46 9505ft 187kts
12-Jul-17 20:42 35.662911 -115.696013 46 9505ft 186kts
12-Jul-17 20:43 35.698378 -115.650721 46 9537ft 185kts
12-Jul-17 20:44 35.734001 -115.605167 46 9537ft 186kts
12-Jul-17 20:45 35.769476 -115.559739 46 9537ft 186kts
12-Jul-17 20:46 35.805027 -115.514148 46 9537ft 186kts
12-Jul-17 20:47 35.840646 -115.468407 46 9537ft 186kts
12-Jul-17 20:48 35.876389 -115.422441 46 9399ft 199kts
12-Jul-17 20:49 35.917678 -115.370285 52 8420ft 220kts
12-Jul-17 20:50 35.955916 -115.320309 41 7363ft 201kts
12-Jul-17 20:51 35.995415 -115.276116 42 5876ft 190kts
12-Jul-17 20:52 36.032230 -115.233789 43 4424ft 185kts
12-Jul-17 20:53 36.064173 -115.196542 44 3061ft 155kts
12-Jul-17 20:54 36.084480 -115.168871 77 2841ft 108kts
12-Jul-17 20:55 36.101741 -115.148671 276 2796ft 88kts
12-Jul-17 20:56 36.089643 -115.158833 212 2142ft 0kts
12-Jul-17 20:57 36.089643 -115.158833 212 2142ft 0kts

Navigation Log

Ident Type
Flight plan parsing failed, navigation log unavailable